createdAt,value
2023-05-14T00:00:04.547Z,7.56
2023-05-14T00:02:30.757Z,7.54
2023-05-14T00:04:56.888Z,7.58
2023-05-14T00:07:23.010Z,7.68
2023-05-14T00:09:49.127Z,7.72
2023-05-14T00:12:15.211Z,7.57
2023-05-14T00:14:41.316Z,7.63
2023-05-14T00:17:07.391Z,7.62
2023-05-14T00:19:33.478Z,7.43
2023-05-14T00:21:59.619Z,6.70
2023-05-14T00:24:25.742Z,6.45
2023-05-14T00:26:51.835Z,6.48
2023-05-14T00:29:17.933Z,6.41
2023-05-14T00:31:44.212Z,6.37
2023-05-14T00:34:10.457Z,6.40
2023-05-14T00:36:36.565Z,6.47
2023-05-14T00:39:03.151Z,6.51
2023-05-14T00:41:29.240Z,6.19
2023-05-14T00:43:55.336Z,6.09
2023-05-14T00:46:21.433Z,6.10
2023-05-14T00:48:47.546Z,6.62
2023-05-14T00:51:13.809Z,6.94
2023-05-14T00:53:39.934Z,7.15
2023-05-14T00:56:06.067Z,7.22
2023-05-14T00:58:32.164Z,7.19
2023-05-14T01:00:58.287Z,6.86
2023-05-14T01:03:24.500Z,6.84
2023-05-14T01:05:50.633Z,6.71
2023-05-14T01:08:16.748Z,7.09
2023-05-14T01:10:42.844Z,7.38
2023-05-14T01:13:08.965Z,7.34
2023-05-14T01:15:35.073Z,7.29
2023-05-14T01:18:01.198Z,7.33
2023-05-14T01:20:27.333Z,7.18
2023-05-14T01:22:53.457Z,7.11
2023-05-14T01:25:19.563Z,7.17
2023-05-14T01:27:45.662Z,7.20
2023-05-14T01:30:11.760Z,7.19
2023-05-14T01:32:37.918Z,7.20
2023-05-14T01:35:04.013Z,7.25
2023-05-14T01:37:30.131Z,7.03
2023-05-14T01:39:56.307Z,6.93
2023-05-14T01:42:22.393Z,6.45
2023-05-14T01:44:48.487Z,6.74
2023-05-14T01:47:14.581Z,6.99
2023-05-14T01:49:40.678Z,7.12
2023-05-14T01:52:06.795Z,7.21
2023-05-14T01:54:32.922Z,7.16
2023-05-14T01:56:59.018Z,7.13
2023-05-14T01:59:25.111Z,7.20
2023-05-14T02:01:51.325Z,7.37
2023-05-14T02:04:17.631Z,7.27
2023-05-14T02:06:43.792Z,7.30
2023-05-14T02:09:09.906Z,7.37
2023-05-14T02:11:36.012Z,7.30
2023-05-14T02:14:02.107Z,7.30
2023-05-14T02:16:28.286Z,7.34
2023-05-14T02:18:54.476Z,7.25
2023-05-14T02:21:20.654Z,7.22
2023-05-14T02:23:46.760Z,7.17
2023-05-14T02:26:12.960Z,7.21
2023-05-14T02:28:39.124Z,7.26
2023-05-14T02:31:05.299Z,7.20
2023-05-14T02:33:31.544Z,7.27
2023-05-14T02:35:57.742Z,7.32
2023-05-14T02:38:24.173Z,7.35
2023-05-14T02:40:50.315Z,6.68
2023-05-14T02:43:16.408Z,6.15
2023-05-14T02:45:43.582Z,6.54
2023-05-14T02:48:09.755Z,6.85
2023-05-14T02:50:35.903Z,7.02
2023-05-14T02:53:02.014Z,6.96
2023-05-14T02:55:28.135Z,7.03
2023-05-14T02:57:54.265Z,7.05
2023-05-14T03:00:20.405Z,7.17
2023-05-14T03:02:47.102Z,7.03
2023-05-14T03:05:13.676Z,6.74
2023-05-14T03:07:39.771Z,6.67
2023-05-14T03:10:05.881Z,6.88
2023-05-14T03:12:31.988Z,6.70
2023-05-14T03:14:58.119Z,6.81
2023-05-14T03:17:24.280Z,6.76
2023-05-14T03:19:50.454Z,6.69
2023-05-14T03:22:16.559Z,6.49
2023-05-14T03:24:42.688Z,6.16
2023-05-14T03:27:08.796Z,6.22
2023-05-14T03:29:34.919Z,6.45
2023-05-14T03:32:01.032Z,6.65
2023-05-14T03:34:27.126Z,6.77
2023-05-14T03:36:53.223Z,6.76
2023-05-14T03:39:19.341Z,6.78
2023-05-14T03:41:45.454Z,6.86
2023-05-14T03:44:11.631Z,6.70
2023-05-14T03:46:37.747Z,6.62
2023-05-14T03:49:03.974Z,6.70
2023-05-14T03:51:30.153Z,6.62
2023-05-14T03:53:56.256Z,6.51
2023-05-14T03:56:22.376Z,6.53
2023-05-14T03:58:48.479Z,6.69
2023-05-14T04:01:14.571Z,6.64
2023-05-14T04:03:40.837Z,6.59
2023-05-14T04:06:07.163Z,6.52
2023-05-14T04:08:33.264Z,6.51
2023-05-14T04:10:59.383Z,6.62
2023-05-14T04:13:25.478Z,6.46
2023-05-14T04:15:51.603Z,6.30
2023-05-14T04:18:17.724Z,6.19
2023-05-14T04:20:43.833Z,6.38
2023-05-14T04:23:09.936Z,6.52
2023-05-14T04:25:36.018Z,6.76
2023-05-14T04:28:02.117Z,6.84
2023-05-14T04:30:28.213Z,6.90
2023-05-14T04:32:54.350Z,6.90
2023-05-14T04:35:22.085Z,6.96
2023-05-14T04:37:49.519Z,6.93
2023-05-14T04:40:15.637Z,6.91
2023-05-14T04:42:41.721Z,6.94
2023-05-14T04:45:07.836Z,7.08
2023-05-14T04:47:34.036Z,7.12
2023-05-14T04:50:00.400Z,7.25
2023-05-14T04:52:26.527Z,7.19
2023-05-14T04:54:52.700Z,7.23
2023-05-14T04:57:18.875Z,7.26
2023-05-14T04:59:44.968Z,7.01
2023-05-14T05:02:11.076Z,7.07
2023-05-14T05:04:37.184Z,7.12
2023-05-14T05:07:03.290Z,7.42
2023-05-14T05:09:29.406Z,7.43
2023-05-14T05:11:55.494Z,7.35
2023-05-14T05:14:21.610Z,7.46
2023-05-14T05:16:47.718Z,7.57
2023-05-14T05:19:13.922Z,7.36
2023-05-14T05:21:40.097Z,7.48
2023-05-14T05:24:06.208Z,7.83
2023-05-14T05:26:32.334Z,7.84
2023-05-14T05:28:58.444Z,7.86
2023-05-14T05:31:24.615Z,7.94
2023-05-14T05:33:50.750Z,8.14
2023-05-14T05:36:16.835Z,8.34
2023-05-14T05:38:42.935Z,8.55
2023-05-14T05:41:09.051Z,8.55
2023-05-14T05:43:35.178Z,8.64
2023-05-14T05:46:01.314Z,8.71
2023-05-14T05:48:27.480Z,8.91
2023-05-14T05:50:53.624Z,8.97
2023-05-14T05:53:19.706Z,9.01
2023-05-14T05:55:45.819Z,8.92
2023-05-14T05:58:11.940Z,8.82
2023-05-14T06:00:38.062Z,8.60
2023-05-14T06:03:04.261Z,8.17
2023-05-14T06:05:30.442Z,7.55
2023-05-14T06:07:56.603Z,7.99
2023-05-14T06:10:22.823Z,8.47
2023-05-14T06:12:49.136Z,8.32
2023-05-14T06:15:15.256Z,8.18
2023-05-14T06:17:41.397Z,7.90
2023-05-14T06:20:07.519Z,8.29
2023-05-14T06:22:33.647Z,8.73
2023-05-14T06:24:59.778Z,8.63
2023-05-14T06:27:25.890Z,9.31
2023-05-14T06:29:52.139Z,9.75
2023-05-14T06:32:18.407Z,10.13
2023-05-14T06:34:44.561Z,10.21
2023-05-14T06:37:10.681Z,10.40
2023-05-14T06:39:36.772Z,10.25
2023-05-14T06:42:02.878Z,10.42
2023-05-14T06:44:29.033Z,10.42
2023-05-14T06:46:55.215Z,10.59
2023-05-14T06:49:21.339Z,10.39
2023-05-14T06:51:47.437Z,10.18
2023-05-14T06:54:13.558Z,9.59
2023-05-14T06:56:39.681Z,9.67
2023-05-14T06:59:05.787Z,9.98
2023-05-14T07:01:31.920Z,10.01
2023-05-14T07:03:58.131Z,9.63
2023-05-14T07:06:24.269Z,9.41
2023-05-14T07:08:50.406Z,9.73
2023-05-14T07:11:16.562Z,8.38
2023-05-14T07:13:42.657Z,8.58
2023-05-14T07:16:08.765Z,8.69
2023-05-14T07:18:34.904Z,8.39
2023-05-14T07:21:01.046Z,8.20
2023-05-14T07:23:27.165Z,7.91
2023-05-14T07:25:53.287Z,7.83
2023-05-14T07:28:19.415Z,7.63
2023-05-14T07:30:45.514Z,7.68
2023-05-14T07:33:12.006Z,6.82
2023-05-14T07:35:38.163Z,6.85
2023-05-14T07:38:04.318Z,7.38
2023-05-14T07:40:30.428Z,7.77
2023-05-14T07:42:56.566Z,7.43
2023-05-14T07:45:22.788Z,7.27
2023-05-14T07:47:49.003Z,7.14
2023-05-14T07:50:15.195Z,6.98
2023-05-14T07:52:41.312Z,7.36
2023-05-14T07:55:07.458Z,7.54
2023-05-14T07:57:33.940Z,8.05
2023-05-14T08:00:00.089Z,8.53
2023-05-14T08:02:26.278Z,9.16
2023-05-14T08:04:52.457Z,9.23
2023-05-14T08:07:18.578Z,9.48
2023-05-14T08:09:44.670Z,9.66
2023-05-14T08:12:10.768Z,9.95
2023-05-14T08:14:37.255Z,10.15
2023-05-14T08:17:03.491Z,10.45
2023-05-14T08:19:29.655Z,10.66
2023-05-14T08:21:55.780Z,10.87
2023-05-14T08:24:21.918Z,11.06
2023-05-14T08:26:48.064Z,11.17
2023-05-14T08:29:16.271Z,11.57
2023-05-14T08:31:42.919Z,11.82
2023-05-14T08:34:09.013Z,11.91
2023-05-14T08:36:35.132Z,12.08
2023-05-14T08:39:01.222Z,11.95
2023-05-14T08:41:27.316Z,12.24
2023-05-14T08:43:53.427Z,12.22
2023-05-14T08:46:19.539Z,11.62
2023-05-14T08:48:45.677Z,10.55
2023-05-14T08:51:11.831Z,9.83
2023-05-14T08:53:38.012Z,9.70
2023-05-14T08:56:04.132Z,9.24
2023-05-14T08:58:30.220Z,9.41
2023-05-14T09:00:56.440Z,8.25
2023-05-14T09:03:22.736Z,7.90
2023-05-14T09:05:48.887Z,8.48
2023-05-14T09:08:14.979Z,7.85
2023-05-14T09:10:41.098Z,8.54
2023-05-14T09:13:07.187Z,9.03
2023-05-14T09:15:33.300Z,9.79
2023-05-14T09:17:59.455Z,10.05
2023-05-14T09:20:25.998Z,9.43
2023-05-14T09:22:52.527Z,9.09
2023-05-14T09:25:18.630Z,9.89
2023-05-14T09:27:44.738Z,9.89
2023-05-14T09:30:10.835Z,10.46
2023-05-14T09:32:36.936Z,10.70
2023-05-14T09:35:03.062Z,11.25
2023-05-14T09:37:29.172Z,11.31
2023-05-14T09:39:55.284Z,11.55
2023-05-14T09:42:21.405Z,11.79
2023-05-14T09:44:47.514Z,11.63
2023-05-14T09:47:13.668Z,11.84
2023-05-14T09:49:39.820Z,12.49
2023-05-14T09:52:05.928Z,12.35
2023-05-14T09:54:32.032Z,12.16
2023-05-14T09:56:58.150Z,12.27
2023-05-14T09:59:24.262Z,10.72
2023-05-14T10:01:50.351Z,10.93
2023-05-14T10:04:16.530Z,10.62
2023-05-14T10:06:42.710Z,9.66
2023-05-14T10:09:08.834Z,9.72
2023-05-14T10:11:34.924Z,9.36
2023-05-14T10:14:01.055Z,9.34
2023-05-14T10:16:27.194Z,9.60
2023-05-14T10:18:54.516Z,10.40
2023-05-14T10:21:21.852Z,10.77
2023-05-14T10:23:47.987Z,11.08
2023-05-14T10:26:14.129Z,12.02
2023-05-14T10:28:40.253Z,11.67
2023-05-14T10:31:06.434Z,12.52
2023-05-14T10:33:32.588Z,12.82
2023-05-14T10:35:58.681Z,13.16
2023-05-14T10:38:24.785Z,13.99
2023-05-14T10:40:53.557Z,13.85
2023-05-14T10:43:20.290Z,14.38
2023-05-14T10:45:46.396Z,14.58
2023-05-14T10:48:12.589Z,14.72
2023-05-14T10:50:38.706Z,15.12
2023-05-14T10:53:04.928Z,15.07
2023-05-14T10:55:31.168Z,14.56
2023-05-14T10:57:57.260Z,13.88
2023-05-14T11:00:23.554Z,13.66
2023-05-14T11:02:49.841Z,12.95
2023-05-14T11:05:16.194Z,12.68
2023-05-14T11:07:42.415Z,12.89
2023-05-14T11:10:08.507Z,12.89
2023-05-14T11:12:34.622Z,13.66
2023-05-14T11:15:00.724Z,13.83
2023-05-14T11:17:26.863Z,12.98
2023-05-14T11:19:53.122Z,12.50
2023-05-14T11:22:19.224Z,13.44
2023-05-14T11:24:45.338Z,14.48
2023-05-14T11:27:11.434Z,14.21
2023-05-14T11:29:37.557Z,14.28
2023-05-14T11:32:03.825Z,12.80
2023-05-14T11:34:30.043Z,12.32
2023-05-14T11:36:56.182Z,10.75
2023-05-14T11:39:22.299Z,9.82
2023-05-14T11:41:48.438Z,9.89
2023-05-14T11:44:14.541Z,9.51
2023-05-14T11:46:40.724Z,9.07
2023-05-14T11:49:06.925Z,9.46
2023-05-14T11:51:33.026Z,10.57
2023-05-14T11:53:59.112Z,10.96
2023-05-14T11:56:25.243Z,11.53
2023-05-14T11:58:51.377Z,11.23
2023-05-14T12:01:17.518Z,12.03
2023-05-14T12:03:43.904Z,12.42
2023-05-14T12:06:10.316Z,12.95
2023-05-14T12:08:36.519Z,13.15
2023-05-14T12:11:02.633Z,13.57
2023-05-14T12:13:28.753Z,14.12
2023-05-14T12:15:54.900Z,14.37
2023-05-14T12:18:25.083Z,14.24
2023-05-14T12:20:51.465Z,13.75
2023-05-14T12:23:17.563Z,13.37
2023-05-14T12:25:43.660Z,13.51
2023-05-14T12:28:09.746Z,13.97
2023-05-14T12:30:35.988Z,14.23
2023-05-14T12:33:02.207Z,14.34
2023-05-14T12:35:28.377Z,13.25
2023-05-14T12:37:54.473Z,12.52
2023-05-14T12:40:20.574Z,11.76
2023-05-14T12:42:46.694Z,10.52
2023-05-14T12:45:12.814Z,10.25
2023-05-14T12:47:39.066Z,10.53
2023-05-14T12:50:05.249Z,10.84
2023-05-14T12:55:00.333Z,10.81
2023-05-14T12:57:26.422Z,10.36
2023-05-14T12:59:52.524Z,10.12
2023-05-14T13:02:18.696Z,10.52
2023-05-14T13:04:44.860Z,10.51
2023-05-14T13:07:11.000Z,11.09
2023-05-14T13:09:37.103Z,11.33
2023-05-14T13:12:03.192Z,10.86
2023-05-14T13:14:29.337Z,10.27
2023-05-14T13:16:55.591Z,9.92
2023-05-14T13:19:21.748Z,9.31
2023-05-14T13:21:47.973Z,9.43
2023-05-14T13:24:14.059Z,8.88
2023-05-14T13:26:40.152Z,8.70
2023-05-14T13:29:06.244Z,9.36
2023-05-14T13:31:32.373Z,9.88
2023-05-14T13:33:58.545Z,10.45
2023-05-14T13:36:24.630Z,9.56
2023-05-14T13:38:50.716Z,9.70
2023-05-14T13:41:16.883Z,10.62
2023-05-14T13:43:43.018Z,11.50
2023-05-14T13:46:09.143Z,11.65
2023-05-14T13:48:35.324Z,11.69
2023-05-14T13:51:01.448Z,11.32
2023-05-14T13:53:27.574Z,11.51
2023-05-14T13:55:53.686Z,11.99
2023-05-14T13:58:19.804Z,11.15
2023-05-14T14:00:45.933Z,11.16
2023-05-14T14:03:12.031Z,10.76
2023-05-14T14:05:38.226Z,10.73
2023-05-14T14:08:13.111Z,11.11
2023-05-14T14:10:48.537Z,10.77
2023-05-14T14:13:14.632Z,11.04
2023-05-14T14:15:40.729Z,10.52
2023-05-14T14:18:06.887Z,10.90
2023-05-14T14:20:33.007Z,10.69
2023-05-14T14:22:59.083Z,10.77
2023-05-14T14:25:25.467Z,10.81
2023-05-14T14:27:51.730Z,11.46
2023-05-14T14:30:17.844Z,11.71
2023-05-14T14:32:43.958Z,11.32
2023-05-14T14:35:10.128Z,10.98
2023-05-14T14:37:36.276Z,10.74
2023-05-14T14:40:02.386Z,10.44
2023-05-14T14:42:28.495Z,10.36
2023-05-14T14:44:54.584Z,10.64
2023-05-14T14:47:20.710Z,10.28
2023-05-14T14:49:46.890Z,9.96
2023-05-14T14:52:13.145Z,9.61
2023-05-14T14:54:39.263Z,9.46
2023-05-14T14:57:05.368Z,9.17
2023-05-14T14:59:31.456Z,9.33
2023-05-14T15:01:57.570Z,9.05
2023-05-14T15:04:23.768Z,9.32
2023-05-14T15:06:49.930Z,9.45
2023-05-14T15:09:16.058Z,9.52
2023-05-14T15:11:42.190Z,9.74
2023-05-14T15:14:08.313Z,9.51
2023-05-14T15:16:34.423Z,9.79
2023-05-14T15:19:00.687Z,9.76
2023-05-14T15:21:26.877Z,9.47
2023-05-14T15:23:52.994Z,9.89
2023-05-14T15:26:19.114Z,9.53
2023-05-14T15:28:45.224Z,9.50
2023-05-14T15:31:11.692Z,9.25
2023-05-14T15:33:37.810Z,9.50
2023-05-14T15:36:03.947Z,9.94
2023-05-14T15:38:30.215Z,9.94
2023-05-14T15:40:56.341Z,9.47
2023-05-14T15:43:22.478Z,10.01
2023-05-14T15:45:48.565Z,9.80
2023-05-14T15:48:14.703Z,9.50
2023-05-14T15:50:40.919Z,9.28
2023-05-14T15:53:07.020Z,9.43
2023-05-14T15:55:33.105Z,9.39
2023-05-14T15:57:59.213Z,9.73
2023-05-14T16:00:25.551Z,9.34
2023-05-14T16:02:51.877Z,9.40
2023-05-14T16:05:18.054Z,9.21
2023-05-14T16:07:44.170Z,9.12
2023-05-14T16:10:10.267Z,9.37
2023-05-14T16:12:36.387Z,8.99
2023-05-14T16:15:02.524Z,8.84
2023-05-14T16:17:28.669Z,8.52
2023-05-14T16:19:56.244Z,8.73
2023-05-14T16:22:22.779Z,8.41
2023-05-14T16:24:48.888Z,8.32
2023-05-14T16:27:14.992Z,8.32
2023-05-14T16:29:41.110Z,8.46
2023-05-14T16:32:07.273Z,8.64
2023-05-14T16:34:33.449Z,8.65
2023-05-14T16:36:59.548Z,8.89
2023-05-14T16:39:25.652Z,8.91
2023-05-14T16:41:51.767Z,9.68
2023-05-14T16:44:17.877Z,9.12
2023-05-14T16:46:44.428Z,9.28
2023-05-14T16:49:10.563Z,9.50
2023-05-14T16:51:36.726Z,9.71
2023-05-14T16:54:02.859Z,9.98
2023-05-14T16:56:28.955Z,10.28
2023-05-14T16:58:55.054Z,10.66
2023-05-14T17:01:21.327Z,10.89
2023-05-14T17:03:47.451Z,11.07
2023-05-14T17:06:13.601Z,10.87
2023-05-14T17:08:39.742Z,11.17
2023-05-14T17:11:06.102Z,11.41
2023-05-14T17:13:32.268Z,11.49
2023-05-14T17:15:58.437Z,11.44
2023-05-14T17:18:24.573Z,11.42
2023-05-14T17:20:50.704Z,11.39
2023-05-14T17:23:19.808Z,11.49
2023-05-14T17:25:45.889Z,11.66
2023-05-14T17:28:12.063Z,11.27
2023-05-14T17:30:38.167Z,11.18
2023-05-14T17:33:04.420Z,10.74
2023-05-14T17:35:30.640Z,11.05
2023-05-14T17:37:57.880Z,10.02
2023-05-14T17:40:25.019Z,8.88
2023-05-14T17:42:51.121Z,8.79
2023-05-14T17:45:17.223Z,9.12
2023-05-14T17:47:43.547Z,9.57
2023-05-14T17:50:09.676Z,8.90
2023-05-14T17:52:35.818Z,9.15
2023-05-14T17:55:02.072Z,8.84
2023-05-14T17:57:28.202Z,9.39
2023-05-14T17:59:54.326Z,9.41
2023-05-14T18:02:20.429Z,9.58
2023-05-14T18:04:46.569Z,9.95
2023-05-14T18:07:12.744Z,9.97
2023-05-14T18:09:38.833Z,10.18
2023-05-14T18:12:04.941Z,10.22
2023-05-14T18:14:31.056Z,10.30
2023-05-14T18:16:57.226Z,10.21
2023-05-14T18:19:25.775Z,10.07
2023-05-14T18:21:51.901Z,9.97
2023-05-14T18:24:18.049Z,9.75
2023-05-14T18:26:44.139Z,9.61
2023-05-14T18:29:10.532Z,9.43
2023-05-14T18:31:36.686Z,9.17
2023-05-14T18:34:02.950Z,9.07
2023-05-14T18:36:29.062Z,8.94
2023-05-14T18:38:55.187Z,8.79
2023-05-14T18:41:21.314Z,8.62
2023-05-14T18:43:47.427Z,8.37
2023-05-14T18:46:13.597Z,8.11
2023-05-14T18:48:39.722Z,8.13
2023-05-14T18:51:05.827Z,8.32
2023-05-14T18:53:31.931Z,8.16
2023-05-14T18:55:58.028Z,8.28
2023-05-14T18:58:24.137Z,8.45
2023-05-14T19:00:50.259Z,8.15
2023-05-14T19:03:16.496Z,8.20
2023-05-14T19:05:42.660Z,8.21
2023-05-14T19:08:08.766Z,8.21
2023-05-14T19:10:34.861Z,8.10
2023-05-14T19:13:00.985Z,8.14
2023-05-14T19:15:27.167Z,7.96
2023-05-14T19:17:53.297Z,8.04
2023-05-14T19:20:19.482Z,7.94
2023-05-14T19:22:45.642Z,8.24
2023-05-14T19:25:11.754Z,8.14
2023-05-14T19:27:37.882Z,8.07
2023-05-14T19:30:03.998Z,8.09
2023-05-14T19:32:30.159Z,7.94
2023-05-14T19:34:56.300Z,7.93
2023-05-14T19:37:22.397Z,7.91
2023-05-14T19:39:48.491Z,7.58
2023-05-14T19:42:14.581Z,7.48
2023-05-14T19:44:40.702Z,7.15
2023-05-14T19:47:06.874Z,7.17
2023-05-14T19:49:33.078Z,7.38
2023-05-14T19:51:59.200Z,7.22
2023-05-14T19:54:25.310Z,7.14
2023-05-14T19:56:51.445Z,7.09
2023-05-14T19:59:17.565Z,7.14
2023-05-14T20:01:43.878Z,7.19
2023-05-14T20:04:10.137Z,7.26
2023-05-14T20:06:36.232Z,7.23
2023-05-14T20:09:02.328Z,7.25
2023-05-14T20:11:28.426Z,7.09
2023-05-14T20:13:54.553Z,7.01
2023-05-14T20:16:20.667Z,7.04
2023-05-14T20:18:46.860Z,6.87
2023-05-14T20:21:12.996Z,6.91
2023-05-14T20:23:39.106Z,6.98
2023-05-14T20:26:05.238Z,6.99
2023-05-14T20:28:31.352Z,7.11
2023-05-14T20:30:57.487Z,7.12
2023-05-14T20:33:23.626Z,7.26
2023-05-14T20:35:49.760Z,7.12
2023-05-14T20:38:15.844Z,7.13
2023-05-14T20:40:42.041Z,7.14
2023-05-14T20:43:08.136Z,7.14
2023-05-14T20:45:34.247Z,7.19
2023-05-14T20:48:00.413Z,7.10
2023-05-14T20:50:26.531Z,7.08
2023-05-14T20:52:52.674Z,7.14
2023-05-14T20:55:18.788Z,6.90
2023-05-14T20:57:44.875Z,6.92
2023-05-14T21:00:11.012Z,6.87
2023-05-14T21:02:37.287Z,7.10
2023-05-14T21:05:03.697Z,7.06
2023-05-14T21:07:29.828Z,7.02
2023-05-14T21:09:55.935Z,6.98
2023-05-14T21:12:22.079Z,6.94
2023-05-14T21:14:48.167Z,6.95
2023-05-14T21:17:14.268Z,6.99
2023-05-14T21:19:40.371Z,6.90
2023-05-14T21:22:06.496Z,6.98
2023-05-14T21:24:32.614Z,6.82
2023-05-14T21:26:58.728Z,6.71
2023-05-14T21:29:24.842Z,6.66
2023-05-14T21:31:50.984Z,6.64
2023-05-14T21:34:17.136Z,6.55
2023-05-14T21:36:43.274Z,6.49
2023-05-14T21:39:09.364Z,6.43
2023-05-14T21:41:35.477Z,6.36
2023-05-14T21:44:01.602Z,6.21
2023-05-14T21:46:27.690Z,6.12
2023-05-14T21:48:53.886Z,6.01
2023-05-14T21:51:20.115Z,6.00
2023-05-14T21:53:46.204Z,5.97
2023-05-14T21:56:12.317Z,5.95
2023-05-14T21:58:38.411Z,5.75
2023-05-14T22:01:04.588Z,5.67
2023-05-14T22:03:30.843Z,5.76
2023-05-14T22:05:57.092Z,5.66
2023-05-14T22:08:23.203Z,5.69
2023-05-14T22:10:49.316Z,5.66
2023-05-14T22:13:15.424Z,5.53
2023-05-14T22:15:41.570Z,5.46
2023-05-14T22:18:07.820Z,5.57
2023-05-14T22:20:34.097Z,5.63
2023-05-14T22:23:00.203Z,5.79
2023-05-14T22:25:26.599Z,5.72
2023-05-14T22:27:52.958Z,5.83
2023-05-14T22:30:19.080Z,5.95
2023-05-14T22:32:45.213Z,5.91
2023-05-14T22:35:11.362Z,5.92
2023-05-14T22:37:37.452Z,6.27
2023-05-14T22:40:03.553Z,6.14
2023-05-14T22:42:29.665Z,6.29
2023-05-14T22:44:55.745Z,6.54
2023-05-14T22:47:21.902Z,6.79
2023-05-14T22:49:48.041Z,6.66
2023-05-14T22:52:14.153Z,6.68
2023-05-14T22:54:40.280Z,6.65
2023-05-14T22:57:06.393Z,6.40
2023-05-14T22:59:32.499Z,6.22
2023-05-14T23:01:58.627Z,6.07
2023-05-14T23:04:24.793Z,6.26
2023-05-14T23:06:50.937Z,6.55
2023-05-14T23:09:17.033Z,6.64
2023-05-14T23:11:43.160Z,6.53
2023-05-14T23:14:09.321Z,6.76
2023-05-14T23:16:35.650Z,6.79
2023-05-14T23:19:01.885Z,6.59
2023-05-14T23:21:28.130Z,6.43
2023-05-14T23:23:54.215Z,6.46
2023-05-14T23:26:20.342Z,6.52
2023-05-14T23:28:46.595Z,6.54
2023-05-14T23:31:12.725Z,6.48
2023-05-14T23:33:38.832Z,6.45
2023-05-14T23:36:05.060Z,6.36
2023-05-14T23:38:31.164Z,6.49
2023-05-14T23:40:57.278Z,6.49
2023-05-14T23:43:23.396Z,6.67
2023-05-14T23:45:49.551Z,6.83
2023-05-14T23:48:15.728Z,6.84
2023-05-14T23:50:41.833Z,6.84
2023-05-14T23:53:07.938Z,6.75
2023-05-14T23:55:34.039Z,6.50
2023-05-14T23:58:00.132Z,6.57
